»·PEaware :: AAL198 KJFK-LIMC

AAL198 :: KJFK-LIMC

FLIGHT INFORMATION

Flight Status: Arrived
Operator:
American Airlines
More flights by this operator :: More flights under this callsign
Pilot: Andrew J. (13363)
Aircraft: BOEING 777-200
(B772)
More flights by this aircraft type
Origin: KJFK Kennedy Intl
United States
Destination: LIMC Malpensa
Italy
More flights between these airports :: More routes between these airports
Route: BETTE ACK WHALE N135A PORTI/M084F390 NATW ELSOX TAKAS/N0493F390 N491 MOSIS UN490 TERPO UM616 BEBIX UP860 BALSI UY11 ROBEX Y11 TOP ASTI1H
File this flight plan on PilotEdge
Remarks:
Altitude:
(Current/Filed)
37,000ft
Speed:
(Current/Filed)
480kts
Departed: 28-Mar-18 05:07 AM
Arrived: 28-Mar-18 05:03 PM
Distance/Time
Traveled:
3460nm/11:56
Distance/Time
To Go:
Arrived

Flight Plot

Page will automatically refresh every two minutes.

Flight plan parsing failed; only flown route is shown


Map Options




Map Legend


Flown Route
Filed Route
Departure Airport
Arrival Airport
Navaid (VOR, NDB)
Fix

Horizontal Profiles

Position Reports

Time Latitude Longitude Heading Altitude Ground
Speed
28-Mar-18 04:37 40.648098 -73.792764 150 27ft 0kts
28-Mar-18 04:38 40.648098 -73.792764 150 27ft 0kts
28-Mar-18 04:39 40.648098 -73.792764 150 27ft 0kts
28-Mar-18 04:40 40.648098 -73.792764 150 27ft 0kts
28-Mar-18 04:41 40.648098 -73.792764 150 27ft 0kts
28-Mar-18 04:42 40.648098 -73.792764 150 27ft 0kts
28-Mar-18 04:43 40.648098 -73.792764 150 27ft 0kts
28-Mar-18 04:44 40.648098 -73.792764 150 27ft 0kts
28-Mar-18 04:45 40.648098 -73.792764 150 27ft 0kts
28-Mar-18 04:46 40.648098 -73.792764 150 27ft 0kts
28-Mar-18 04:47 40.648098 -73.792764 150 27ft 0kts
28-Mar-18 04:48 40.648098 -73.792764 150 27ft 0kts
28-Mar-18 04:49 40.648098 -73.792764 150 27ft 0kts
28-Mar-18 04:50 40.648098 -73.792764 150 27ft 0kts
28-Mar-18 04:51 40.648098 -73.792764 150 27ft 0kts
28-Mar-18 04:52 40.648527 -73.793207 120 27ft 2kts
28-Mar-18 04:53 40.648494 -73.793876 59 27ft 1kts
28-Mar-18 04:54 40.648450 -73.793976 59 27ft 0kts
28-Mar-18 04:55 40.648450 -73.793976 59 27ft 0kts
28-Mar-18 04:56 40.648450 -73.793976 59 27ft 0kts
28-Mar-18 04:57 40.648510 -73.793838 60 27ft 7kts
28-Mar-18 04:58 40.651047 -73.789164 7 27ft 10kts
28-Mar-18 04:59 40.652604 -73.787147 60 27ft 8kts
28-Mar-18 05:00 40.653847 -73.784208 59 27ft 13kts
28-Mar-18 05:01 40.654407 -73.780027 120 27ft 10kts
28-Mar-18 05:02 40.653060 -73.777038 120 27ft 8kts
28-Mar-18 05:03 40.651022 -73.772566 120 27ft 18kts
28-Mar-18 05:04 40.648816 -73.767685 121 27ft 8kts
28-Mar-18 05:05 40.648836 -73.765203 149 27ft 6kts
28-Mar-18 05:06 40.643681 -73.768777 209 27ft 99kts
28-Mar-18 05:07 40.604378 -73.798601 211 2772ft 183kts
28-Mar-18 05:08 40.546531 -73.815098 153 4791ft 273kts
28-Mar-18 05:09 40.504112 -73.727125 114 8316ft 300kts
28-Mar-18 05:10 40.502513 -73.613388 80 11105ft 345kts
28-Mar-18 05:11 40.515915 -73.474255 80 13539ft 418kts
28-Mar-18 05:12 40.531357 -73.315394 80 16947ft 453kts
28-Mar-18 05:13 40.546807 -73.146264 80 20135ft 479kts
28-Mar-18 05:14 40.569350 -72.969821 70 22935ft 499kts
28-Mar-18 05:15 40.614017 -72.792984 65 25585ft 518kts
28-Mar-18 05:16 40.660358 -72.612152 66 28049ft 540kts
28-Mar-18 05:17 40.709341 -72.421055 66 30349ft 556kts
28-Mar-18 05:18 40.756972 -72.231563 65 33527ft 539kts
28-Mar-18 05:19 40.803424 -72.044810 65 35791ft 534kts
28-Mar-18 05:20 40.849266 -71.858975 64 37151ft 529kts
28-Mar-18 05:21 40.894404 -71.674585 64 37157ft 528kts
28-Mar-18 05:22 40.939258 -71.489857 64 37148ft 528kts
28-Mar-18 05:23 40.983984 -71.304209 64 37144ft 528kts
28-Mar-18 05:24 41.027891 -71.120456 64 37142ft 527kts
28-Mar-18 05:25 41.071778 -70.935327 65 37123ft 527kts
28-Mar-18 05:26 41.115518 -70.749311 65 37123ft 527kts
28-Mar-18 05:27 41.158731 -70.564035 65 37123ft 526kts
28-Mar-18 05:28 41.194650 -70.409534 64 37121ft 525kts
28-Mar-18 05:29 41.244595 -70.192211 65 37120ft 527kts
28-Mar-18 05:30 41.287422 -70.006356 62 37119ft 524kts
28-Mar-18 05:31 41.343653 -69.829837 57 37119ft 516kts
28-Mar-18 05:32 41.390199 -69.684326 58 37120ft 517kts
28-Mar-18 05:33 41.446113 -69.508273 58 37118ft 516kts
28-Mar-18 05:34 41.501786 -69.331553 58 37120ft 516kts
28-Mar-18 05:35 41.556650 -69.155247 58 37120ft 515kts
28-Mar-18 05:36 41.611100 -68.979028 58 37119ft 513kts
28-Mar-18 05:37 41.665375 -68.802170 58 37119ft 512kts
28-Mar-18 05:38 41.719162 -68.625735 58 37123ft 513kts
28-Mar-18 05:39 41.772716 -68.448879 58 37123ft 513kts
28-Mar-18 05:40 41.826231 -68.270957 58 37118ft 514kts
28-Mar-18 05:41 41.878974 -68.094403 58 37116ft 514kts
28-Mar-18 05:42 41.931857 -67.916181 59 37114ft 514kts
28-Mar-18 05:43 41.984642 -67.737038 59 37112ft 515kts
28-Mar-18 05:44 42.036946 -67.558314 59 37104ft 515kts
28-Mar-18 05:45 42.089448 -67.378196 59 37100ft 515kts
28-Mar-18 05:46 42.141503 -67.198224 59 37097ft 517kts
28-Mar-18 05:47 42.192987 -67.017672 59 37095ft 515kts
28-Mar-18 05:48 42.254197 -66.845783 52 37093ft 505kts
28-Mar-18 05:49 42.317714 -66.678501 53 37094ft 498kts
28-Mar-18 05:50 42.379933 -66.512166 53 37089ft 495kts
28-Mar-18 05:51 42.442130 -66.345491 53 37087ft 494kts
28-Mar-18 05:52 42.503403 -66.179084 53 37085ft 494kts
28-Mar-18 05:53 42.564406 -66.012268 53 37075ft 494kts
28-Mar-18 05:54 42.625167 -65.845096 53 37074ft 492kts
28-Mar-18 05:55 42.685531 -65.678005 54 37073ft 493kts
28-Mar-18 05:56 42.745633 -65.510646 54 37074ft 493kts
28-Mar-18 05:57 42.805568 -65.342751 54 37072ft 494kts
28-Mar-18 05:58 42.865362 -65.174250 55 37070ft 495kts
28-Mar-18 05:59 42.924957 -65.005238 55 37073ft 493kts
28-Mar-18 06:00 42.984057 -64.836613 55 37064ft 493kts
28-Mar-18 06:01 43.042791 -64.668022 55 37062ft 492kts
28-Mar-18 06:02 43.101434 -64.498675 56 37058ft 492kts
28-Mar-18 06:03 43.159637 -64.329537 56 37057ft 492kts
28-Mar-18 06:04 43.217599 -64.160033 56 37047ft 492kts
28-Mar-18 06:05 43.275631 -63.989266 56 37045ft 494kts
28-Mar-18 06:06 43.332623 -63.820541 57 37044ft 487kts
28-Mar-18 06:07 43.389378 -63.651473 58 37043ft 487kts
28-Mar-18 06:08 43.446034 -63.481600 58 37042ft 487kts
28-Mar-18 06:09 43.502138 -63.312307 58 37036ft 486kts
28-Mar-18 06:10 43.557791 -63.143367 58 37036ft 483kts
28-Mar-18 06:11 43.613100 -62.974343 59 37035ft 481kts
28-Mar-18 06:12 43.667693 -62.806531 59 37034ft 478kts
28-Mar-18 06:13 43.721906 -62.638748 60 37035ft 476kts
28-Mar-18 06:14 43.775297 -62.472396 60 37034ft 475kts
28-Mar-18 06:15 43.828451 -62.305869 60 37033ft 473kts
28-Mar-18 06:16 43.881313 -62.139205 60 37033ft 472kts
28-Mar-18 06:17 43.933837 -61.972556 61 37039ft 472kts
28-Mar-18 06:18 43.986132 -61.805487 61 37012ft 472kts
28-Mar-18 06:19 44.038265 -61.637943 61 37000ft 472kts
28-Mar-18 06:20 44.090117 -61.470072 62 36992ft 474kts
28-Mar-18 06:21 44.141880 -61.301535 62 36985ft 475kts
28-Mar-18 06:22 44.193545 -61.132115 63 36982ft 476kts
28-Mar-18 06:23 44.245066 -60.962076 64 36978ft 477kts
28-Mar-18 06:24 44.296633 -60.790804 65 36975ft 478kts
28-Mar-18 06:25 44.347862 -60.619463 66 36972ft 479kts
28-Mar-18 06:26 44.398877 -60.447666 66 36970ft 479kts
28-Mar-18 06:27 44.449886 -60.274713 67 36967ft 480kts
28-Mar-18 06:28 44.500465 -60.102048 67 36971ft 479kts
28-Mar-18 06:29 44.550819 -59.928970 67 36968ft 481kts
28-Mar-18 06:30 44.601190 -59.754603 68 36971ft 481kts
28-Mar-18 06:31 44.651012 -59.580927 68 36983ft 482kts
28-Mar-18 06:32 44.700763 -59.406284 69 36989ft 482kts
28-Mar-18 06:33 44.750471 -59.230546 69 36998ft 483kts
28-Mar-18 06:34 44.799822 -59.054840 70 37005ft 484kts
28-Mar-18 06:35 44.849142 -58.877958 71 37012ft 484kts
28-Mar-18 06:36 44.898102 -58.701071 71 37020ft 485kts
28-Mar-18 06:37 44.946829 -58.523736 71 37028ft 486kts
28-Mar-18 06:38 44.995489 -58.345351 72 37036ft 486kts
28-Mar-18 06:39 45.043562 -58.167787 72 37043ft 486kts
28-Mar-18 06:40 45.091491 -57.989461 72 37052ft 485kts
28-Mar-18 06:41 45.139568 -57.809246 73 37063ft 490kts
28-Mar-18 06:42 45.187291 -57.628950 74 37069ft 490kts
28-Mar-18 06:43 45.234797 -57.448112 74 37078ft 490kts
28-Mar-18 06:44 45.282248 -57.266082 74 37087ft 491kts
28-Mar-18 06:45 45.329370 -57.083882 74 37096ft 492kts
28-Mar-18 06:46 45.376372 -56.900778 75 37105ft 495kts
28-Mar-18 06:47 45.423213 -56.716772 75 37115ft 496kts
28-Mar-18 06:48 45.470127 -56.530996 75 38605ft 497kts
28-Mar-18 06:49 45.516773 -56.344825 74 39127ft 496kts
28-Mar-18 06:50 45.562914 -56.159203 74 39144ft 498kts
28-Mar-18 06:51 45.608871 -55.972756 75 39168ft 499kts
28-Mar-18 06:52 45.654830 -55.784730 75 39173ft 501kts
28-Mar-18 06:53 45.700402 -55.596679 75 39175ft 501kts
28-Mar-18 06:54 45.745811 -55.407757 75 39179ft 503kts
28-Mar-18 06:55 45.791211 -55.217317 76 39183ft 505kts
28-Mar-18 06:56 45.836174 -55.026982 76 39188ft 508kts
28-Mar-18 06:57 45.881224 -54.834695 77 39193ft 511kts
28-Mar-18 06:58 45.926353 -54.640305 78 39199ft 514kts
28-Mar-18 06:59 45.971276 -54.445051 78 39207ft 516kts
28-Mar-18 07:00 46.016028 -54.248784 78 39215ft 518kts
28-Mar-18 07:01 46.060646 -54.051290 78 39223ft 518kts
28-Mar-18 07:02 46.104850 -53.853817 78 39233ft 519kts
28-Mar-18 07:03 46.148751 -53.655826 78 39242ft 520kts
28-Mar-18 07:04 46.192374 -53.457263 78 39250ft 520kts
28-Mar-18 07:05 46.235816 -53.257630 78 39258ft 523kts
28-Mar-18 07:06 46.279103 -53.056777 78 39299ft 526kts
28-Mar-18 07:07 46.322499 -52.853435 78 39288ft 529kts
28-Mar-18 07:08 46.365588 -52.649533 78 39295ft 532kts
28-Mar-18 07:09 46.408674 -52.443673 78 39297ft 534kts
28-Mar-18 07:10 46.451736 -52.237397 78 39270ft 536kts
28-Mar-18 07:11 46.493918 -52.030011 78 39271ft 536kts
28-Mar-18 07:12 46.544240 -51.824752 72 39272ft 545kts
28-Mar-18 07:13 46.597634 -51.619636 73 39271ft 543kts
28-Mar-18 07:14 46.650701 -51.414149 72 39271ft 543kts
28-Mar-18 07:15 46.703350 -51.207561 72 39271ft 543kts
28-Mar-18 07:16 46.755253 -51.000969 72 39271ft 544kts
28-Mar-18 07:17 46.806746 -50.793989 72 39268ft 544kts
28-Mar-18 07:18 46.858099 -50.585751 72 39269ft 544kts
28-Mar-18 07:19 46.909310 -50.377856 72 39266ft 544kts
28-Mar-18 07:20 46.959841 -50.168287 72 39260ft 545kts
28-Mar-18 07:21 47.007865 -49.958978 77 39259ft 543kts
28-Mar-18 07:22 47.037855 -49.741986 81 39259ft 544kts
28-Mar-18 07:23 47.067380 -49.523765 80 39259ft 545kts
28-Mar-18 07:24 47.098709 -49.306744 80 39258ft 544kts
28-Mar-18 07:25 47.129038 -49.089172 80 39257ft 545kts
28-Mar-18 07:26 47.158906 -48.870404 80 39257ft 545kts
28-Mar-18 07:27 47.188266 -48.651947 80 39257ft 546kts
28-Mar-18 07:28 47.217244 -48.432969 80 39257ft 547kts
28-Mar-18 07:29 47.245817 -48.213638 80 39257ft 547kts
28-Mar-18 07:30 47.274035 -47.993573 80 39257ft 548kts
28-Mar-18 07:31 47.301932 -47.772451 79 39257ft 548kts
28-Mar-18 07:32 47.329305 -47.551953 79 39258ft 548kts
28-Mar-18 07:33 47.356257 -47.331173 79 39258ft 548kts
28-Mar-18 07:34 47.382831 -47.109765 79 39259ft 547kts
28-Mar-18 07:35 47.408883 -46.888947 79 39260ft 547kts
28-Mar-18 07:36 47.434512 -46.667927 79 39260ft 547kts
28-Mar-18 07:37 47.459720 -46.446665 79 39261ft 546kts
28-Mar-18 07:38 47.484489 -46.225305 79 39262ft 547kts
28-Mar-18 07:39 47.508839 -46.003696 79 39263ft 546kts
28-Mar-18 07:40 47.532818 -45.781253 79 39267ft 546kts
28-Mar-18 07:41 47.556294 -45.559380 79 39266ft 546kts
28-Mar-18 07:42 47.579300 -45.337715 79 39266ft 545kts
28-Mar-18 07:43 47.601911 -45.115503 79 39264ft 544kts
28-Mar-18 07:44 47.623993 -44.894099 79 39264ft 543kts
28-Mar-18 07:45 47.645605 -44.673001 79 39266ft 543kts
28-Mar-18 07:46 47.666797 -44.451652 79 39269ft 542kts
28-Mar-18 07:47 47.687571 -44.230063 79 39269ft 543kts
28-Mar-18 07:48 47.707971 -44.007594 79 39271ft 543kts
28-Mar-18 07:49 47.724623 -43.822489 79 39273ft 543kts
28-Mar-18 07:50 47.744166 -43.600607 79 39275ft 542kts
28-Mar-18 07:51 47.763339 -43.377868 79 39276ft 541kts
28-Mar-18 07:52 47.785012 -43.119602 79 39279ft 540kts
28-Mar-18 07:53 47.803106 -42.898362 79 39281ft 539kts
28-Mar-18 07:54 47.817837 -42.714122 79 39283ft 539kts
28-Mar-18 07:55 47.835136 -42.492814 78 39285ft 539kts
28-Mar-18 07:56 47.852080 -42.270389 78 39287ft 540kts
28-Mar-18 07:57 47.868554 -42.048399 79 39290ft 541kts
28-Mar-18 07:58 47.884616 -41.826029 79 39292ft 540kts
28-Mar-18 07:59 47.900299 -41.602717 79 39275ft 540kts
28-Mar-18 08:00 47.915471 -41.380569 79 39275ft 539kts
28-Mar-18 08:01 47.930190 -41.158593 79 39277ft 538kts
28-Mar-18 08:02 47.944480 -40.936497 79 39281ft 539kts
28-Mar-18 08:03 47.958360 -40.714094 79 39284ft 540kts
28-Mar-18 08:04 47.971835 -40.491172 79 39287ft 541kts
28-Mar-18 08:05 47.985378 -40.266774 79 39290ft 543kts
28-Mar-18 08:06 47.997870 -40.042296 77 39292ft 542kts
28-Mar-18 08:07 48.040786 -39.832339 60 39297ft 524kts
28-Mar-18 08:08 48.092115 -39.628289 61 39299ft 525kts
28-Mar-18 08:09 48.143048 -39.423741 60 39287ft 524kts
28-Mar-18 08:10 48.193985 -39.218541 61 39290ft 525kts
28-Mar-18 08:11 48.243659 -39.014369 61 39293ft 524kts
28-Mar-18 08:12 48.293079 -38.809109 61 39295ft 523kts
28-Mar-18 08:13 48.342236 -38.602952 61 39297ft 522kts
28-Mar-18 08:14 48.390781 -38.397431 61 39300ft 521kts
28-Mar-18 08:15 48.438900 -38.191785 61 39302ft 521kts
28-Mar-18 08:16 48.486830 -37.984974 61 39311ft 522kts
28-Mar-18 08:17 48.534184 -37.778657 61 39315ft 521kts
28-Mar-18 08:18 48.581294 -37.571429 62 39325ft 521kts
28-Mar-18 08:19 48.627705 -37.365262 62 39327ft 520kts
28-Mar-18 08:20 48.673889 -37.158071 62 39328ft 520kts
28-Mar-18 08:21 48.719862 -36.949768 62 39257ft 519kts
28-Mar-18 08:22 48.765230 -36.742147 62 39255ft 520kts
28-Mar-18 08:23 48.810234 -36.534100 63 39255ft 520kts
28-Mar-18 08:24 48.855054 -36.324797 63 39255ft 520kts
28-Mar-18 08:25 48.899245 -36.116281 63 39253ft 519kts
28-Mar-18 08:26 48.943190 -35.906782 63 39253ft 518kts
28-Mar-18 08:27 48.986356 -35.698856 63 39254ft 518kts
28-Mar-18 08:28 49.029325 -35.489708 64 39251ft 518kts
28-Mar-18 08:29 49.072060 -35.279446 64 39250ft 518kts
28-Mar-18 08:30 49.114296 -35.069409 64 39248ft 518kts
28-Mar-18 08:31 49.156090 -34.859377 64 39248ft 517kts
28-Mar-18 08:32 49.197647 -34.648227 65 39247ft 518kts
28-Mar-18 08:33 49.238632 -34.437672 65 39246ft 517kts
28-Mar-18 08:34 49.279389 -34.225969 65 39244ft 517kts
28-Mar-18 08:35 49.319569 -34.014908 65 39242ft 516kts
28-Mar-18 08:36 49.359167 -33.804574 65 39236ft 516kts
28-Mar-18 08:37 49.398668 -33.592362 65 39214ft 516kts
28-Mar-18 08:38 49.437670 -33.380359 65 39212ft 517kts
28-Mar-18 08:39 49.476326 -33.167867 66 39210ft 517kts
28-Mar-18 08:40 49.514765 -32.954044 66 39208ft 518kts
28-Mar-18 08:41 49.552744 -32.740255 66 39205ft 519kts
28-Mar-18 08:42 49.590414 -32.525632 66 39203ft 520kts
28-Mar-18 08:43 49.627802 -32.310021 66 39200ft 519kts
28-Mar-18 08:44 49.664559 -32.095426 66 39198ft 520kts
28-Mar-18 08:45 49.701195 -31.878888 67 39195ft 520kts
28-Mar-18 08:46 49.737329 -31.662598 67 39192ft 520kts
28-Mar-18 08:47 49.773030 -31.446161 67 39189ft 520kts
28-Mar-18 08:48 49.808473 -31.228515 67 39186ft 520kts
28-Mar-18 08:49 49.843386 -31.011323 67 39248ft 520kts
28-Mar-18 08:50 49.877920 -30.793658 68 39285ft 521kts
28-Mar-18 08:51 49.912196 -30.574698 68 39283ft 522kts
28-Mar-18 08:52 49.946461 -30.356667 68 39280ft 523kts
28-Mar-18 08:53 49.979626 -30.136205 69 39277ft 523kts
28-Mar-18 08:54 50.012187 -29.915909 69 39274ft 524kts
28-Mar-18 08:55 50.043380 -29.694595 70 39281ft 525kts
28-Mar-18 08:56 50.074193 -29.472099 70 39280ft 524kts
28-Mar-18 08:57 50.106203 -29.251124 70 39277ft 524kts
28-Mar-18 08:58 50.136892 -29.029545 71 39273ft 523kts
28-Mar-18 08:59 50.167079 -28.807023 71 39275ft 523kts
28-Mar-18 09:00 50.196600 -28.585928 71 39272ft 523kts
28-Mar-18 09:01 50.225919 -28.362793 71 39269ft 523kts
28-Mar-18 09:02 50.254720 -28.140044 72 39266ft 524kts
28-Mar-18 09:03 50.283119 -27.916981 72 39263ft 524kts
28-Mar-18 09:04 50.311146 -27.693021 72 39260ft 524kts
28-Mar-18 09:05 50.338715 -27.469279 73 39257ft 524kts
28-Mar-18 09:06 50.365912 -27.244594 73 39254ft 524kts
28-Mar-18 09:07 50.392595 -27.020405 73 39209ft 524kts
28-Mar-18 09:08 50.418847 -26.795951 74 39188ft 524kts
28-Mar-18 09:09 50.444678 -26.571158 74 39186ft 525kts
28-Mar-18 09:10 50.470078 -26.346045 74 39184ft 524kts
28-Mar-18 09:11 50.495059 -26.120627 75 39182ft 525kts
28-Mar-18 09:12 50.519722 -25.893852 75 39179ft 525kts
28-Mar-18 09:13 50.543877 -25.667470 75 39177ft 526kts
28-Mar-18 09:14 50.567591 -25.440875 76 39157ft 526kts
28-Mar-18 09:15 50.590939 -25.213310 76 39155ft 526kts
28-Mar-18 09:16 50.613811 -24.985870 76 39068ft 526kts
28-Mar-18 09:17 50.636248 -24.758135 76 39065ft 527kts
28-Mar-18 09:18 50.658229 -24.530162 77 39012ft 527kts
28-Mar-18 09:19 50.679806 -24.301755 77 39009ft 527kts
28-Mar-18 09:20 50.701018 -24.072205 77 39007ft 528kts
28-Mar-18 09:21 50.721710 -23.843175 78 39003ft 528kts
28-Mar-18 09:22 50.741947 -23.613977 78 39003ft 528kts
28-Mar-18 09:23 50.761806 -23.383771 78 38915ft 527kts
28-Mar-18 09:24 50.781129 -23.154383 79 38910ft 527kts
28-Mar-18 09:25 50.799924 -22.925738 79 38908ft 527kts
28-Mar-18 09:26 50.818403 -22.695261 79 38907ft 527kts
28-Mar-18 09:27 50.836358 -22.465522 79 38840ft 527kts
28-Mar-18 09:28 50.853920 -22.234821 80 38834ft 527kts
28-Mar-18 09:29 50.870978 -22.004638 80 38868ft 527kts
28-Mar-18 09:30 50.887556 -21.774663 80 38869ft 526kts
28-Mar-18 09:31 50.903719 -21.543994 80 38865ft 525kts
28-Mar-18 09:32 50.919368 -21.314071 81 38861ft 525kts
28-Mar-18 09:33 50.934543 -21.084321 81 38852ft 524kts
28-Mar-18 09:34 50.949246 -20.854757 81 38792ft 523kts
28-Mar-18 09:35 50.963497 -20.625136 82 38789ft 523kts
28-Mar-18 09:36 50.977933 -20.395004 82 38786ft 523kts
28-Mar-18 09:37 50.990869 -20.165421 82 38758ft 523kts
28-Mar-18 09:38 51.002565 -19.935649 85 38754ft 523kts
28-Mar-18 09:39 51.005638 -19.704536 87 38751ft 522kts
28-Mar-18 09:40 51.008723 -19.474250 87 38749ft 522kts
28-Mar-18 09:41 51.013366 -19.244306 87 38747ft 522kts
28-Mar-18 09:42 51.016790 -19.014159 87 38745ft 522kts
28-Mar-18 09:43 51.019562 -18.784115 87 38743ft 521kts
28-Mar-18 09:44 51.021859 -18.554214 88 38741ft 521kts
28-Mar-18 09:45 51.023709 -18.323428 88 38739ft 521kts
28-Mar-18 09:46 51.025099 -18.093576 88 38738ft 520kts
28-Mar-18 09:47 51.026039 -17.863904 88 38736ft 521kts
28-Mar-18 09:48 51.026529 -17.633381 89 38734ft 521kts
28-Mar-18 09:49 51.026565 -17.403692 89 38735ft 521kts
28-Mar-18 09:50 51.026151 -17.174042 90 38733ft 521kts
28-Mar-18 09:51 51.025293 -16.944379 90 38733ft 520kts
28-Mar-18 09:52 51.023980 -16.714733 90 38725ft 521kts
28-Mar-18 09:53 51.022211 -16.484563 90 38722ft 519kts
28-Mar-18 09:54 51.020004 -16.255444 90 38721ft 519kts
28-Mar-18 09:55 51.017351 -16.026388 91 38720ft 519kts
28-Mar-18 09:56 51.014240 -15.796695 91 38719ft 519kts
28-Mar-18 09:57 51.010695 -15.567767 91 38718ft 520kts
28-Mar-18 09:58 51.007278 -15.338482 92 38717ft 520kts
28-Mar-18 09:59 51.002378 -15.109542 92 38734ft 520kts
28-Mar-18 10:00 50.999683 -14.880338 89 38732ft 520kts
28-Mar-18 10:01 51.000382 -14.650377 90 38730ft 520kts
28-Mar-18 10:02 51.001274 -14.421218 89 38729ft 520kts
28-Mar-18 10:03 51.000898 -14.192083 90 38725ft 519kts
28-Mar-18 10:04 50.992164 -13.963468 106 38718ft 517kts
28-Mar-18 10:05 50.931001 -13.759927 120 38722ft 512kts
28-Mar-18 10:06 50.867475 -13.558175 118 38721ft 513kts
28-Mar-18 10:07 50.816681 -13.388011 117 38721ft 513kts
28-Mar-18 10:08 50.755401 -13.184473 118 38712ft 513kts
28-Mar-18 10:09 50.693261 -12.981243 118 38712ft 513kts
28-Mar-18 10:10 50.631011 -12.779475 118 38712ft 512kts
28-Mar-18 10:11 50.557994 -12.544942 118 38712ft 512kts
28-Mar-18 10:12 50.505332 -12.377161 118 38713ft 512kts
28-Mar-18 10:13 50.442065 -12.177097 119 38714ft 512kts
28-Mar-18 10:14 50.378486 -11.977659 119 38715ft 512kts
28-Mar-18 10:15 50.314493 -11.778531 119 38716ft 512kts
28-Mar-18 10:16 50.250203 -11.580067 119 38718ft 512kts
28-Mar-18 10:17 50.185625 -11.382295 119 38720ft 512kts
28-Mar-18 10:18 50.120517 -11.184459 120 38722ft 511kts
28-Mar-18 10:19 50.055605 -10.988757 119 38726ft 507kts
28-Mar-18 10:20 49.990453 -10.793839 120 38723ft 507kts
28-Mar-18 10:21 49.925051 -10.599687 120 38727ft 508kts
28-Mar-18 10:22 49.859336 -10.406102 120 38730ft 508kts
28-Mar-18 10:23 49.793160 -10.212615 120 38735ft 506kts
28-Mar-18 10:24 49.727223 -10.021291 121 38740ft 506kts
28-Mar-18 10:25 49.660720 -9.829747 121 38745ft 507kts
28-Mar-18 10:26 49.593643 -9.637995 121 38743ft 507kts
28-Mar-18 10:27 49.526431 -9.447286 121 38724ft 507kts
28-Mar-18 10:28 49.458699 -9.256518 122 38732ft 507kts
28-Mar-18 10:29 49.390824 -9.066749 122 38739ft 507kts
28-Mar-18 10:30 49.322612 -8.877421 122 38744ft 508kts
28-Mar-18 10:31 49.253915 -8.688136 123 38805ft 507kts
28-Mar-18 10:32 49.185328 -8.500501 123 38819ft 507kts
28-Mar-18 10:33 49.116654 -8.312428 123 38820ft 507kts
28-Mar-18 10:34 49.046691 -8.124799 123 38824ft 508kts
28-Mar-18 10:35 48.993957 -7.925756 94 38822ft 522kts
28-Mar-18 10:36 49.003728 -7.704785 90 38827ft 523kts
28-Mar-18 10:37 49.005147 -7.482784 90 38829ft 523kts
28-Mar-18 10:38 49.006593 -7.261358 93 38828ft 523kts
28-Mar-18 10:39 48.974295 -7.048374 112 38832ft 515kts
28-Mar-18 10:40 48.928534 -6.842767 111 38838ft 516kts
28-Mar-18 10:41 48.884486 -6.635303 110 38841ft 516kts
28-Mar-18 10:42 48.840498 -6.426970 111 38846ft 517kts
28-Mar-18 10:43 48.795757 -6.219836 111 38850ft 517kts
28-Mar-18 10:44 48.750564 -6.012929 112 38855ft 518kts
28-Mar-18 10:45 48.704788 -5.805460 112 38863ft 518kts
28-Mar-18 10:46 48.658485 -5.597681 112 40072ft 521kts
28-Mar-18 10:47 48.611699 -5.389780 112 40880ft 520kts
28-Mar-18 10:48 48.564796 -5.183391 112 40892ft 520kts
28-Mar-18 10:49 48.517677 -4.978044 112 40898ft 520kts
28-Mar-18 10:50 48.469813 -4.771434 113 40904ft 521kts
28-Mar-18 10:51 48.421725 -4.565817 113 40904ft 521kts
28-Mar-18 10:52 48.373680 -4.360134 113 40905ft 521kts
28-Mar-18 10:53 48.324273 -4.154521 113 40907ft 522kts
28-Mar-18 10:54 48.252623 -3.972632 140 40912ft 501kts
28-Mar-18 10:55 48.155351 -3.820751 138 40916ft 504kts
28-Mar-18 10:56 48.060498 -3.666487 138 40914ft 504kts
28-Mar-18 10:57 47.965759 -3.513294 138 40909ft 504kts
28-Mar-18 10:58 47.870578 -3.359027 138 40904ft 504kts
28-Mar-18 10:59 47.774974 -3.206398 138 40901ft 505kts
28-Mar-18 11:00 47.700368 -3.026784 118 40889ft 521kts
28-Mar-18 11:01 47.640222 -2.831024 119 40879ft 520kts
28-Mar-18 11:02 47.578527 -2.637224 119 40877ft 521kts
28-Mar-18 11:03 47.516796 -2.443733 119 40887ft 520kts
28-Mar-18 11:04 47.454578 -2.250035 120 40899ft 520kts
28-Mar-18 11:05 47.391768 -2.058756 120 40903ft 520kts
28-Mar-18 11:06 47.319531 -1.876347 135 40902ft 508kts
28-Mar-18 11:07 47.225951 -1.721559 137 40904ft 507kts
28-Mar-18 11:08 47.131047 -1.569631 143 40906ft 500kts
28-Mar-18 11:09 47.025970 -1.435559 144 40904ft 500kts
28-Mar-18 11:10 46.922223 -1.300139 144 40905ft 500kts
28-Mar-18 11:11 46.818352 -1.165217 144 40906ft 500kts
28-Mar-18 11:12 46.714389 -1.029704 145 40906ft 500kts
28-Mar-18 11:13 46.610271 -0.895998 145 40914ft 499kts
28-Mar-18 11:14 46.506390 -0.762158 144 40917ft 499kts
28-Mar-18 11:15 46.408884 -0.617628 126 40921ft 517kts
28-Mar-18 11:16 46.346097 -0.429162 121 40918ft 519kts
28-Mar-18 11:17 46.280482 -0.242387 122 40909ft 519kts
28-Mar-18 11:18 46.213925 -0.057516 122 40907ft 519kts
28-Mar-18 11:19 46.161320 0.137848 107 40906ft 531kts
28-Mar-18 11:20 46.129193 0.345719 107 40907ft 529kts
28-Mar-18 11:21 46.094764 0.551623 106 40901ft 530kts
28-Mar-18 11:22 46.060555 0.757407 107 40902ft 529kts
28-Mar-18 11:23 46.025421 0.962693 106 40902ft 529kts
28-Mar-18 11:24 45.990122 1.167783 107 40904ft 527kts
28-Mar-18 11:25 45.954314 1.372721 104 40904ft 530kts
28-Mar-18 11:26 45.955138 1.585340 86 40903ft 535kts
28-Mar-18 11:27 45.964071 1.798601 87 40896ft 536kts
28-Mar-18 11:28 45.972797 2.013002 88 40891ft 536kts
28-Mar-18 11:29 45.979873 2.226718 88 40871ft 536kts
28-Mar-18 11:30 45.987174 2.440202 88 40862ft 535kts
28-Mar-18 11:31 45.993441 2.653477 88 40855ft 534kts
28-Mar-18 11:32 45.991912 2.865697 102 40847ft 528kts
28-Mar-18 11:33 45.959021 3.071203 105 40847ft 527kts
28-Mar-18 11:34 45.927024 3.276252 105 40845ft 526kts
28-Mar-18 11:35 45.893933 3.480543 106 40845ft 526kts
28-Mar-18 11:36 45.861617 3.685639 105 40844ft 526kts
28-Mar-18 11:37 45.830334 3.890397 105 40844ft 526kts
28-Mar-18 11:38 45.797836 4.095213 105 40844ft 526kts
28-Mar-18 11:39 45.765467 4.298184 106 40845ft 525kts
28-Mar-18 11:40 45.732053 4.501489 106 40846ft 525kts
28-Mar-18 11:41 45.698854 4.705479 105 40845ft 525kts
28-Mar-18 11:42 45.665120 4.908465 105 40846ft 526kts
28-Mar-18 11:43 45.635610 5.087739 105 40846ft 525kts
28-Mar-18 11:44 45.635610 5.087739 105 40846ft 525kts
28-Mar-18 11:45 45.635610 5.087739 105 40846ft 525kts
28-Mar-18 11:46 45.635610 5.087739 105 40846ft 525kts
28-Mar-18 11:47 45.635610 5.087739 105 40846ft 525kts
28-Mar-18 11:48 45.635610 5.087739 105 40846ft 525kts
28-Mar-18 11:49 45.635610 5.087739 105 40846ft 525kts
28-Mar-18 11:50 45.635610 5.087739 105 40846ft 525kts
28-Mar-18 11:51 45.635610 5.087739 105 40846ft 525kts
28-Mar-18 11:52 45.635610 5.087739 105 40846ft 525kts
28-Mar-18 11:53 45.635610 5.087739 105 40846ft 525kts
28-Mar-18 11:54 45.635610 5.087739 105 40846ft 525kts
28-Mar-18 11:55 45.635610 5.087739 105 40846ft 525kts
28-Mar-18 11:56 45.635610 5.087739 105 40846ft 525kts
28-Mar-18 11:57 45.635610 5.087739 105 40846ft 525kts
28-Mar-18 11:58 45.635610 5.087739 105 40846ft 525kts
28-Mar-18 11:59 45.635610 5.087739 105 40846ft 525kts
28-Mar-18 12:00 45.635610 5.087739 105 40846ft 525kts
28-Mar-18 12:01 45.635610 5.087739 105 40846ft 525kts
28-Mar-18 12:02 45.635610 5.087739 105 40846ft 525kts
28-Mar-18 12:03 45.635610 5.087739 105 40846ft 525kts
28-Mar-18 12:04 45.635610 5.087739 105 40846ft 525kts
28-Mar-18 12:05 45.635610 5.087739 105 40846ft 525kts
28-Mar-18 12:06 45.635610 5.087739 105 40846ft 525kts
28-Mar-18 12:07 45.635610 5.087739 105 40846ft 525kts
28-Mar-18 12:08 45.635610 5.087739 105 40846ft 525kts
28-Mar-18 12:09 45.635610 5.087739 105 40846ft 525kts
28-Mar-18 12:10 45.635610 5.087739 105 40846ft 525kts
28-Mar-18 12:11 45.635610 5.087739 105 40846ft 525kts
28-Mar-18 12:12 45.635610 5.087739 105 40846ft 525kts
28-Mar-18 12:13 45.635610 5.087739 105 40846ft 525kts
28-Mar-18 12:14 45.635610 5.087739 105 40846ft 525kts
28-Mar-18 12:15 45.635610 5.087739 105 40846ft 525kts
28-Mar-18 12:16 45.635610 5.087739 105 40846ft 525kts
28-Mar-18 12:17 45.635610 5.087739 105 40846ft 525kts
28-Mar-18 12:18 45.635610 5.087739 105 40846ft 525kts
28-Mar-18 12:19 45.635610 5.087739 105 40846ft 525kts
28-Mar-18 12:20 45.635610 5.087739 105 40846ft 525kts
28-Mar-18 12:21 45.635610 5.087739 105 40846ft 525kts
28-Mar-18 12:22 45.635610 5.087739 105 40846ft 525kts
28-Mar-18 12:23 45.635610 5.087739 105 40846ft 525kts
28-Mar-18 12:24 45.635610 5.087739 105 40846ft 525kts
28-Mar-18 12:25 45.635610 5.087739 105 40846ft 525kts
28-Mar-18 12:26 45.635610 5.087739 105 40846ft 525kts
28-Mar-18 12:27 45.635610 5.087739 105 40846ft 525kts
28-Mar-18 12:28 45.635610 5.087739 105 40846ft 525kts
28-Mar-18 12:29 45.635610 5.087739 105 40846ft 525kts
28-Mar-18 12:30 45.635610 5.087739 105 40846ft 525kts
28-Mar-18 12:31 45.635610 5.087739 105 40846ft 525kts
28-Mar-18 12:32 45.635610 5.087739 105 40846ft 525kts
28-Mar-18 12:33 45.635610 5.087739 105 40846ft 525kts
28-Mar-18 12:34 45.635610 5.087739 105 40846ft 525kts
28-Mar-18 12:35 45.635610 5.087739 105 40846ft 525kts
28-Mar-18 12:36 45.635610 5.087739 105 40846ft 525kts
28-Mar-18 12:37 45.635610 5.087739 105 40846ft 525kts
28-Mar-18 12:38 45.635610 5.087739 105 40846ft 525kts
28-Mar-18 12:39 45.635610 5.087739 105 40846ft 525kts
28-Mar-18 12:40 45.635610 5.087739 105 40846ft 525kts
28-Mar-18 12:41 45.635610 5.087739 105 40846ft 525kts
28-Mar-18 12:42 45.635610 5.087739 105 40846ft 525kts
28-Mar-18 12:43 45.635610 5.087739 105 40846ft 525kts
28-Mar-18 12:44 45.635610 5.087739 105 40846ft 525kts
28-Mar-18 12:45 45.635610 5.087739 105 40846ft 525kts
28-Mar-18 12:46 45.635610 5.087739 105 40846ft 525kts
28-Mar-18 12:47 45.635610 5.087739 105 40846ft 525kts
28-Mar-18 12:48 45.635610 5.087739 105 40846ft 525kts
28-Mar-18 12:49 45.635610 5.087739 105 40846ft 525kts
28-Mar-18 12:50 45.635610 5.087739 105 40846ft 525kts
28-Mar-18 12:51 45.635610 5.087739 105 40846ft 525kts
28-Mar-18 12:52 45.635610 5.087739 105 40846ft 525kts
28-Mar-18 12:53 45.635610 5.087739 105 40846ft 525kts
28-Mar-18 12:54 45.635610 5.087739 105 40846ft 525kts
28-Mar-18 12:55 45.635610 5.087739 105 40846ft 525kts
28-Mar-18 12:56 45.635610 5.087739 105 40846ft 525kts
28-Mar-18 12:57 45.635610 5.087739 105 40846ft 525kts
28-Mar-18 12:58 45.635610 5.087739 105 40846ft 525kts
28-Mar-18 12:59 45.635610 5.087739 105 40846ft 525kts
28-Mar-18 13:00 45.635610 5.087739 105 40846ft 525kts
28-Mar-18 13:01 45.635610 5.087739 105 40846ft 525kts
28-Mar-18 13:02 45.635610 5.087739 105 40846ft 525kts
28-Mar-18 13:03 45.635610 5.087739 105 40846ft 525kts
28-Mar-18 13:04 45.635610 5.087739 105 40846ft 525kts
28-Mar-18 13:05 45.635610 5.087739 105 40846ft 525kts
28-Mar-18 13:06 45.635610 5.087739 105 40846ft 525kts
28-Mar-18 13:07 45.635610 5.087739 105 40846ft 525kts
28-Mar-18 13:08 45.635610 5.087739 105 40846ft 525kts
28-Mar-18 13:09 45.635610 5.087739 105 40846ft 525kts
28-Mar-18 13:10 45.635610 5.087739 105 40846ft 525kts
28-Mar-18 13:11 45.635610 5.087739 105 40846ft 525kts
28-Mar-18 13:12 45.635610 5.087739 105 40846ft 525kts
28-Mar-18 13:13 45.635610 5.087739 105 40846ft 525kts
28-Mar-18 13:14 45.635610 5.087739 105 40846ft 525kts
28-Mar-18 13:15 45.635610 5.087739 105 40846ft 525kts
28-Mar-18 13:16 45.635610 5.087739 105 40846ft 525kts
28-Mar-18 13:17 45.635610 5.087739 105 40846ft 525kts
28-Mar-18 13:18 45.635610 5.087739 105 40846ft 525kts
28-Mar-18 13:19 45.635610 5.087739 105 40846ft 525kts
28-Mar-18 13:20 45.635610 5.087739 105 40846ft 525kts
28-Mar-18 13:21 45.635610 5.087739 105 40846ft 525kts
28-Mar-18 13:22 45.635610 5.087739 105 40846ft 525kts
28-Mar-18 13:23 45.635610 5.087739 105 40846ft 525kts
28-Mar-18 13:24 45.635610 5.087739 105 40846ft 525kts
28-Mar-18 13:25 45.635610 5.087739 105 40846ft 525kts
28-Mar-18 13:26 45.635610 5.087739 105 40846ft 525kts
28-Mar-18 13:27 45.635610 5.087739 105 40846ft 525kts
28-Mar-18 13:28 45.635610 5.087739 105 40846ft 525kts
28-Mar-18 13:29 45.635610 5.087739 105 40846ft 525kts
28-Mar-18 13:30 45.635610 5.087739 105 40846ft 525kts
28-Mar-18 13:31 45.635610 5.087739 105 40846ft 525kts
28-Mar-18 13:32 45.635610 5.087739 105 40846ft 525kts
28-Mar-18 13:33 45.635610 5.087739 105 40846ft 525kts
28-Mar-18 13:34 45.635610 5.087739 105 40846ft 525kts
28-Mar-18 13:35 45.635610 5.087739 105 40846ft 525kts
28-Mar-18 13:36 45.635610 5.087739 105 40846ft 525kts
28-Mar-18 13:37 45.635610 5.087739 105 40846ft 525kts
28-Mar-18 13:38 45.635610 5.087739 105 40846ft 525kts
28-Mar-18 13:39 45.635610 5.087739 105 40846ft 525kts
28-Mar-18 13:40 45.635610 5.087739 105 40846ft 525kts
28-Mar-18 13:41 45.635610 5.087739 105 40846ft 525kts
28-Mar-18 13:42 45.635610 5.087739 105 40846ft 525kts
28-Mar-18 13:43 45.635610 5.087739 105 40846ft 525kts
28-Mar-18 13:44 45.635610 5.087739 105 40846ft 525kts
28-Mar-18 13:45 45.635610 5.087739 105 40846ft 525kts
28-Mar-18 13:46 45.635610 5.087739 105 40846ft 525kts
28-Mar-18 13:47 45.635610 5.087739 105 40846ft 525kts
28-Mar-18 13:48 45.635610 5.087739 105 40846ft 525kts
28-Mar-18 13:49 45.635610 5.087739 105 40846ft 525kts
28-Mar-18 13:50 45.635610 5.087739 105 40846ft 525kts
28-Mar-18 13:51 45.635610 5.087739 105 40846ft 525kts
28-Mar-18 13:52 45.635610 5.087739 105 40846ft 525kts
28-Mar-18 13:53 45.635610 5.087739 105 40846ft 525kts
28-Mar-18 13:54 45.635610 5.087739 105 40846ft 525kts
28-Mar-18 13:55 45.635610 5.087739 105 40846ft 525kts
28-Mar-18 13:56 45.635610 5.087739 105 40846ft 525kts
28-Mar-18 13:57 45.635610 5.087739 105 40846ft 525kts
28-Mar-18 13:58 45.635610 5.087739 105 40846ft 525kts
28-Mar-18 13:59 45.635610 5.087739 105 40846ft 525kts
28-Mar-18 14:00 45.635610 5.087739 105 40846ft 525kts
28-Mar-18 14:01 45.635610 5.087739 105 40846ft 525kts
28-Mar-18 14:02 45.635610 5.087739 105 40846ft 525kts
28-Mar-18 14:03 45.635610 5.087739 105 40846ft 525kts
28-Mar-18 14:04 45.635610 5.087739 105 40846ft 525kts
28-Mar-18 14:05 45.635610 5.087739 105 40846ft 525kts
28-Mar-18 14:06 45.635610 5.087739 105 40846ft 525kts
28-Mar-18 14:07 45.635610 5.087739 105 40846ft 525kts
28-Mar-18 14:08 45.635610 5.087739 105 40846ft 525kts
28-Mar-18 14:09 45.635610 5.087739 105 40846ft 525kts
28-Mar-18 14:10 45.635610 5.087739 105 40846ft 525kts
28-Mar-18 14:11 45.635610 5.087739 105 40846ft 525kts
28-Mar-18 14:12 45.635610 5.087739 105 40846ft 525kts
28-Mar-18 14:13 45.635610 5.087739 105 40846ft 525kts
28-Mar-18 14:14 45.635610 5.087739 105 40846ft 525kts
28-Mar-18 14:15 45.635610 5.087739 105 40846ft 525kts
28-Mar-18 14:16 45.635610 5.087739 105 40846ft 525kts
28-Mar-18 14:17 45.635610 5.087739 105 40846ft 525kts
28-Mar-18 14:18 45.635610 5.087739 105 40846ft 525kts
28-Mar-18 14:19 45.635610 5.087739 105 40846ft 525kts
28-Mar-18 14:20 45.635610 5.087739 105 40846ft 525kts
28-Mar-18 14:21 45.635610 5.087739 105 40846ft 525kts
28-Mar-18 14:22 45.635610 5.087739 105 40846ft 525kts
28-Mar-18 14:23 45.635610 5.087739 105 40846ft 525kts
28-Mar-18 14:24 45.635610 5.087739 105 40846ft 525kts
28-Mar-18 14:25 45.635610 5.087739 105 40846ft 525kts
28-Mar-18 14:26 45.635610 5.087739 105 40846ft 525kts
28-Mar-18 14:27 45.635610 5.087739 105 40846ft 525kts
28-Mar-18 14:28 45.635610 5.087739 105 40846ft 525kts
28-Mar-18 14:29 45.635610 5.087739 105 40846ft 525kts
28-Mar-18 14:30 45.635610 5.087739 105 40846ft 525kts
28-Mar-18 14:31 45.635610 5.087739 105 40846ft 525kts
28-Mar-18 14:32 45.635610 5.087739 105 40846ft 525kts
28-Mar-18 14:33 45.635610 5.087739 105 40846ft 525kts
28-Mar-18 14:34 45.635610 5.087739 105 40846ft 525kts
28-Mar-18 14:35 45.635610 5.087739 105 40846ft 525kts
28-Mar-18 14:36 45.635610 5.087739 105 40846ft 525kts
28-Mar-18 14:37 45.635610 5.087739 105 40846ft 525kts
28-Mar-18 14:38 45.635610 5.087739 105 40846ft 525kts
28-Mar-18 14:39 45.635610 5.087739 105 40846ft 525kts
28-Mar-18 14:40 45.635610 5.087739 105 40846ft 525kts
28-Mar-18 14:41 45.635610 5.087739 105 40846ft 525kts
28-Mar-18 14:42 45.635610 5.087739 105 40846ft 525kts
28-Mar-18 14:43 45.635610 5.087739 105 40846ft 525kts
28-Mar-18 14:44 45.635610 5.087739 105 40846ft 525kts
28-Mar-18 14:45 45.635610 5.087739 105 40846ft 525kts
28-Mar-18 14:46 45.635610 5.087739 105 40846ft 525kts
28-Mar-18 14:47 45.635610 5.087739 105 40846ft 525kts
28-Mar-18 14:48 45.635610 5.087739 105 40846ft 525kts
28-Mar-18 14:49 45.635610 5.087739 105 40846ft 525kts
28-Mar-18 14:50 45.635610 5.087739 105 40846ft 525kts
28-Mar-18 14:51 45.635610 5.087739 105 40846ft 525kts
28-Mar-18 14:52 45.635610 5.087739 105 40846ft 525kts
28-Mar-18 14:53 45.635610 5.087739 105 40846ft 525kts
28-Mar-18 14:54 45.635610 5.087739 105 40846ft 525kts
28-Mar-18 14:55 45.635610 5.087739 105 40846ft 525kts
28-Mar-18 14:56 45.635610 5.087739 105 40846ft 525kts
28-Mar-18 14:57 45.635610 5.087739 105 40846ft 525kts
28-Mar-18 14:58 45.635610 5.087739 105 40846ft 525kts
28-Mar-18 14:59 45.635610 5.087739 105 40846ft 525kts
28-Mar-18 15:00 45.635610 5.087739 105 40846ft 525kts
28-Mar-18 15:01 45.635610 5.087739 105 40846ft 525kts
28-Mar-18 15:02 45.635610 5.087739 105 40846ft 525kts
28-Mar-18 15:03 45.635610 5.087739 105 40846ft 525kts
28-Mar-18 15:04 45.635610 5.087739 105 40846ft 525kts
28-Mar-18 15:05 45.635610 5.087739 105 40846ft 525kts
28-Mar-18 15:06 45.635610 5.087739 105 40846ft 525kts
28-Mar-18 15:07 45.635610 5.087739 105 40846ft 525kts
28-Mar-18 15:08 45.635610 5.087739 105 40846ft 525kts
28-Mar-18 15:09 45.635610 5.087739 105 40846ft 525kts
28-Mar-18 15:10 45.635610 5.087739 105 40846ft 525kts
28-Mar-18 15:11 45.635610 5.087739 105 40846ft 525kts
28-Mar-18 15:12 45.635610 5.087739 105 40846ft 525kts
28-Mar-18 15:13 45.635610 5.087739 105 40846ft 525kts
28-Mar-18 15:14 45.635610 5.087739 105 40846ft 525kts
28-Mar-18 15:15 45.635610 5.087739 105 40846ft 525kts
28-Mar-18 15:16 45.635610 5.087739 105 40846ft 525kts
28-Mar-18 15:17 45.635610 5.087739 105 40846ft 525kts
28-Mar-18 15:18 45.635610 5.087739 105 40846ft 525kts
28-Mar-18 15:19 45.635610 5.087739 105 40846ft 525kts
28-Mar-18 15:20 45.635610 5.087739 105 40846ft 525kts
28-Mar-18 15:21 45.635610 5.087739 105 40846ft 525kts
28-Mar-18 15:22 45.635610 5.087739 105 40846ft 525kts
28-Mar-18 15:23 45.635610 5.087739 105 40846ft 525kts
28-Mar-18 15:24 45.635610 5.087739 105 40846ft 525kts
28-Mar-18 15:25 45.635610 5.087739 105 40846ft 525kts
28-Mar-18 15:26 45.635610 5.087739 105 40846ft 525kts
28-Mar-18 15:27 45.635610 5.087739 105 40846ft 525kts
28-Mar-18 15:28 45.635610 5.087739 105 40846ft 525kts
28-Mar-18 15:29 45.635610 5.087739 105 40846ft 525kts
28-Mar-18 15:30 45.635610 5.087739 105 40846ft 525kts
28-Mar-18 15:31 45.635610 5.087739 105 40846ft 525kts
28-Mar-18 15:32 45.635610 5.087739 105 40846ft 525kts
28-Mar-18 15:33 45.635610 5.087739 105 40846ft 525kts
28-Mar-18 15:34 45.635610 5.087739 105 40846ft 525kts
28-Mar-18 15:35 45.635610 5.087739 105 40846ft 525kts
28-Mar-18 15:36 45.635610 5.087739 105 40846ft 525kts
28-Mar-18 15:37 45.635610 5.087739 105 40846ft 525kts
28-Mar-18 15:38 45.635610 5.087739 105 40846ft 525kts
28-Mar-18 15:39 45.635610 5.087739 105 40846ft 525kts
28-Mar-18 15:40 45.635610 5.087739 105 40846ft 525kts
28-Mar-18 15:41 45.635610 5.087739 105 40846ft 525kts
28-Mar-18 15:42 45.635610 5.087739 105 40846ft 525kts
28-Mar-18 15:43 45.635610 5.087739 105 40846ft 525kts
28-Mar-18 15:44 45.635610 5.087739 105 40846ft 525kts
28-Mar-18 15:45 45.635610 5.087739 105 40846ft 525kts
28-Mar-18 15:46 45.635610 5.087739 105 40846ft 525kts
28-Mar-18 15:47 45.635610 5.087739 105 40846ft 525kts
28-Mar-18 15:48 45.635610 5.087739 105 40846ft 525kts
28-Mar-18 15:49 45.635610 5.087739 105 40846ft 525kts
28-Mar-18 15:50 45.635610 5.087739 105 40846ft 525kts
28-Mar-18 15:51 45.635610 5.087739 105 40846ft 525kts
28-Mar-18 15:52 45.635610 5.087739 105 40846ft 525kts
28-Mar-18 15:53 45.635610 5.087739 105 40846ft 525kts
28-Mar-18 15:54 45.635610 5.087739 105 40846ft 525kts
28-Mar-18 15:55 45.635610 5.087739 105 40846ft 525kts
28-Mar-18 15:56 45.635610 5.087739 105 40846ft 525kts
28-Mar-18 15:57 45.635610 5.087739 105 40846ft 525kts
28-Mar-18 15:58 45.635610 5.087739 105 40846ft 525kts
28-Mar-18 15:59 45.635610 5.087739 105 40846ft 525kts
28-Mar-18 16:00 45.635610 5.087739 105 40846ft 525kts
28-Mar-18 16:01 45.635610 5.087739 105 40846ft 525kts
28-Mar-18 16:02 45.635610 5.087739 105 40846ft 525kts
28-Mar-18 16:03 45.635610 5.087739 105 40846ft 525kts
28-Mar-18 16:04 45.635610 5.087739 105 40846ft 525kts
28-Mar-18 16:05 45.635610 5.087739 105 40846ft 525kts
28-Mar-18 16:06 45.635610 5.087739 105 40846ft 525kts
28-Mar-18 16:07 45.635610 5.087739 105 40846ft 525kts
28-Mar-18 16:08 45.635610 5.087739 105 40846ft 525kts
28-Mar-18 16:09 45.635610 5.087739 105 40846ft 525kts
28-Mar-18 16:10 45.635610 5.087739 105 40846ft 525kts
28-Mar-18 16:11 45.635610 5.087739 105 40846ft 525kts
28-Mar-18 16:12 45.635610 5.087739 105 40846ft 525kts
28-Mar-18 16:13 45.635610 5.087739 105 40846ft 525kts
28-Mar-18 16:14 45.635610 5.087739 105 40846ft 525kts
28-Mar-18 16:15 45.635610 5.087739 105 40846ft 525kts
28-Mar-18 16:16 45.635610 5.087739 105 40846ft 525kts
28-Mar-18 16:17 45.635610 5.087739 105 40846ft 525kts
28-Mar-18 16:18 45.635610 5.087739 105 40846ft 525kts
28-Mar-18 16:19 45.635610 5.087739 105 40846ft 525kts
28-Mar-18 16:20 45.635610 5.087739 105 40846ft 525kts
28-Mar-18 16:21 45.635610 5.087739 105 40846ft 525kts
28-Mar-18 16:22 45.635610 5.087739 105 40846ft 525kts
28-Mar-18 16:23 45.635610 5.087739 105 40846ft 525kts
28-Mar-18 16:24 45.635610 5.087739 105 40846ft 525kts
28-Mar-18 16:25 45.635610 5.087739 105 40846ft 525kts
28-Mar-18 16:26 45.635610 5.087739 105 40846ft 525kts
28-Mar-18 16:27 45.634649 5.093421 106 40845ft 525kts
28-Mar-18 16:28 45.599961 5.297341 107 40843ft 531kts
28-Mar-18 16:29 45.564885 5.500957 107 40542ft 520kts
28-Mar-18 16:30 45.528302 5.697245 110 38836ft 505kts
28-Mar-18 16:31 45.490215 5.893062 111 36448ft 512kts
28-Mar-18 16:32 45.424665 6.060131 141 34824ft 469kts
28-Mar-18 16:33 45.340771 6.200897 139 33419ft 460kts
28-Mar-18 16:34 45.260939 6.339879 139 32008ft 448kts
28-Mar-18 16:35 45.182041 6.477465 138 31017ft 470kts
28-Mar-18 16:36 45.095847 6.627333 137 30521ft 498kts
28-Mar-18 16:37 45.013992 6.784450 121 30014ft 509kts
28-Mar-18 16:38 44.997492 6.983588 100 29520ft 518kts
28-Mar-18 16:39 44.978130 7.184639 98 28391ft 520kts
28-Mar-18 16:40 44.963293 7.387375 97 25399ft 517kts
28-Mar-18 16:41 44.949018 7.587938 98 22396ft 506kts
28-Mar-18 16:42 44.932791 7.780872 99 20080ft 473kts
28-Mar-18 16:43 44.928899 7.968464 86 20340ft 503kts
28-Mar-18 16:44 44.936798 8.156576 87 20469ft 475kts
28-Mar-18 16:45 44.973711 8.325088 47 18285ft 443kts
28-Mar-18 16:46 45.061408 8.439283 36 16112ft 418kts
28-Mar-18 16:47 45.145074 8.548238 39 13929ft 403kts
28-Mar-18 16:48 45.230898 8.632490 18 11709ft 343kts
28-Mar-18 16:49 45.299407 8.659825 4 11046ft 267kts
28-Mar-18 16:50 45.367161 8.672721 4 10659ft 241kts
28-Mar-18 16:51 45.432944 8.687259 6 9491ft 236kts
28-Mar-18 16:52 45.507922 8.704352 7 8050ft 230kts
28-Mar-18 16:53 45.570400 8.718678 7 6821ft 226kts
28-Mar-18 16:54 45.621864 8.730485 7 6038ft 215kts
28-Mar-18 16:55 45.673528 8.711190 326 5350ft 193kts
28-Mar-18 16:56 45.719133 8.671182 328 4576ft 190kts
28-Mar-18 16:57 45.764752 8.638872 357 3719ft 186kts
28-Mar-18 16:58 45.772308 8.691037 149 3084ft 179kts
28-Mar-18 16:59 45.726478 8.706836 169 2442ft 163kts
28-Mar-18 17:00 45.682530 8.718965 168 1589ft 151kts
28-Mar-18 17:01 45.643558 8.729756 168 843ft 138kts
28-Mar-18 17:02 45.622085 8.735730 168 780ft 29kts
28-Mar-18 17:03 45.616018 8.736700 246 780ft 13kts
28-Mar-18 17:04 45.618644 8.731309 357 780ft 20kts
28-Mar-18 17:05 45.622971 8.729864 299 780ft 9kts
28-Mar-18 17:06 45.622700 8.726586 258 780ft 7kts
28-Mar-18 17:07 45.622232 8.723088 272 780ft 11kts
28-Mar-18 17:08 45.624688 8.721823 347 780ft 8kts
28-Mar-18 17:09 45.626806 8.721182 347 780ft 6kts
28-Mar-18 17:10 45.628848 8.720610 349 780ft 10kts
28-Mar-18 17:11 45.629673 8.717712 258 780ft 9kts
28-Mar-18 17:12 45.629237 8.715069 196 780ft 3kts
28-Mar-18 17:13 45.628612 8.715175 169 780ft 1kts
28-Mar-18 17:14 45.628512 8.715202 169 780ft 0kts
28-Mar-18 17:15 45.628512 8.715202 169 780ft 0kts

Navigation Log

Ident Type
Flight plan parsing failed, navigation log unavailable